createdAt,value
2017-10-22T00:02:26.856Z,2.90
2017-10-22T00:04:54.357Z,2.70
2017-10-22T00:07:21.860Z,3.30
2017-10-22T00:09:49.323Z,2.30
2017-10-22T00:12:17.050Z,2.57
2017-10-22T00:14:45.517Z,3.13
2017-10-22T00:17:13.004Z,3.17
2017-10-22T00:19:40.488Z,2.87
2017-10-22T00:22:08.736Z,2.87
2017-10-22T00:24:36.220Z,2.83
2017-10-22T00:27:04.451Z,2.40
2017-10-22T00:29:32.454Z,2.13
2017-10-22T00:31:59.932Z,2.83
2017-10-22T00:34:28.187Z,3.77
2017-10-22T00:36:55.665Z,3.30
2017-10-22T00:39:23.204Z,3.27
2017-10-22T00:41:51.488Z,3.00
2017-10-22T00:44:18.951Z,3.27
2017-10-22T00:46:47.188Z,3.23
2017-10-22T00:49:14.938Z,3.30
2017-10-22T00:51:42.414Z,3.43
2017-10-22T00:54:09.892Z,2.70
2017-10-22T00:56:37.436Z,2.73
2017-10-22T00:59:04.907Z,2.70
2017-10-22T01:01:32.372Z,2.50
2017-10-22T01:04:00.610Z,2.37
2017-10-22T01:06:28.596Z,2.30
2017-10-22T01:08:56.417Z,3.00
2017-10-22T01:11:25.247Z,2.40
2017-10-22T01:13:52.711Z,3.07
2017-10-22T01:16:20.961Z,4.50
2017-10-22T01:18:49.115Z,2.93
2017-10-22T01:21:16.669Z,2.90
2017-10-22T01:23:44.444Z,2.60
2017-10-22T01:26:11.943Z,3.30
2017-10-22T01:28:39.442Z,2.90
2017-10-22T01:31:06.918Z,3.83
2017-10-22T01:33:34.466Z,2.97
2017-10-22T01:36:01.943Z,3.30
2017-10-22T01:38:29.436Z,2.87
2017-10-22T01:40:57.706Z,3.60
2017-10-22T01:43:26.038Z,3.30
2017-10-22T01:45:53.498Z,3.00
2017-10-22T01:48:21.000Z,2.90
2017-10-22T01:50:48.550Z,3.80
2017-10-22T01:53:17.178Z,3.30
2017-10-22T01:55:44.730Z,2.97
2017-10-22T01:58:12.240Z,3.57
2017-10-22T02:00:39.717Z,3.40
2017-10-22T02:03:07.179Z,4.37
2017-10-22T02:05:35.472Z,3.87
2017-10-22T02:08:02.949Z,3.50
2017-10-22T02:10:30.475Z,4.30
2017-10-22T02:12:58.720Z,4.33
2017-10-22T02:15:27.014Z,3.60
2017-10-22T02:17:54.549Z,3.47
2017-10-22T02:20:22.118Z,4.13
2017-10-22T02:22:49.587Z,4.47
2017-10-22T02:25:17.139Z,4.10
2017-10-22T02:27:44.612Z,3.73
2017-10-22T02:30:12.853Z,4.10
2017-10-22T02:32:40.875Z,4.67
2017-10-22T02:35:08.352Z,4.50
2017-10-22T02:37:35.836Z,4.80
2017-10-22T02:40:04.680Z,5.60
2017-10-22T02:42:32.255Z,6.10
2017-10-22T02:44:59.724Z,6.40
2017-10-22T02:47:27.224Z,6.80
2017-10-22T02:49:55.136Z,6.70
2017-10-22T02:52:22.804Z,6.43
2017-10-22T02:54:50.572Z,6.07
2017-10-22T02:57:18.427Z,5.40
2017-10-22T02:59:46.719Z,6.73
2017-10-22T03:02:14.195Z,5.90
2017-10-22T03:04:41.702Z,6.40
2017-10-22T03:07:09.482Z,7.10
2017-10-22T03:09:37.180Z,6.83
2017-10-22T03:12:04.765Z,7.00
2017-10-22T03:14:33.032Z,7.03
2017-10-22T03:17:02.003Z,7.30
2017-10-22T03:19:29.488Z,8.20
2017-10-22T03:21:57.731Z,6.57
2017-10-22T03:24:25.212Z,7.77
2017-10-22T03:26:53.447Z,6.70
2017-10-22T03:29:20.943Z,7.47
2017-10-22T03:31:48.504Z,6.67
2017-10-22T03:34:16.063Z,6.77
2017-10-22T03:36:43.623Z,7.00
2017-10-22T03:39:11.895Z,6.93
2017-10-22T03:41:39.446Z,7.37
2017-10-22T03:44:06.919Z,6.57
2017-10-22T03:46:35.191Z,8.57
2017-10-22T03:49:03.439Z,7.87
2017-10-22T03:51:30.913Z,9.63
2017-10-22T03:53:58.376Z,8.33
2017-10-22T03:56:26.099Z,8.33
2017-10-22T03:58:53.596Z,7.23
2017-10-22T04:01:21.410Z,8.70
2017-10-22T04:03:48.888Z,9.20
2017-10-22T04:06:16.360Z,8.63
2017-10-22T04:08:43.903Z,9.10
2017-10-22T04:11:11.377Z,9.00
2017-10-22T04:13:39.224Z,8.10
2017-10-22T04:16:07.008Z,8.20
2017-10-22T04:18:34.786Z,8.57
2017-10-22T04:21:03.001Z,9.80
2017-10-22T04:23:30.788Z,8.80
2017-10-22T04:25:58.623Z,9.67
2017-10-22T04:28:26.141Z,9.20
2017-10-22T04:30:53.603Z,8.83
2017-10-22T04:33:21.915Z,8.87
2017-10-22T04:35:49.440Z,7.93
2017-10-22T04:40:48.712Z,8.07
2017-10-22T04:43:16.187Z,10.47
2017-10-22T04:45:43.655Z,8.47
2017-10-22T04:48:11.479Z,7.93
2017-10-22T04:50:38.991Z,8.40
2017-10-22T04:53:06.540Z,10.17
2017-10-22T04:55:34.107Z,9.80
2017-10-22T04:58:01.575Z,8.70
2017-10-22T05:00:29.828Z,8.33
2017-10-22T05:02:57.286Z,9.10
2017-10-22T05:05:24.754Z,8.93
2017-10-22T05:07:52.291Z,9.03
2017-10-22T05:10:19.979Z,8.50
2017-10-22T05:12:47.444Z,10.47
2017-10-22T05:15:15.682Z,8.93
2017-10-22T05:17:43.143Z,8.73
2017-10-22T05:20:11.689Z,9.63
2017-10-22T05:22:39.163Z,9.70
2017-10-22T05:25:06.644Z,10.47
2017-10-22T05:27:35.226Z,10.63
2017-10-22T05:30:03.568Z,10.43
2017-10-22T05:32:31.292Z,8.63
2017-10-22T05:34:59.567Z,9.13
2017-10-22T05:37:27.812Z,9.03
2017-10-22T05:39:55.421Z,9.23
2017-10-22T05:42:22.951Z,9.60
2017-10-22T05:44:50.421Z,8.50
2017-10-22T05:47:18.648Z,7.77
2017-10-22T05:49:46.138Z,7.60
2017-10-22T05:52:13.611Z,9.00
2017-10-22T05:54:41.871Z,7.67
2017-10-22T05:57:09.341Z,8.47
2017-10-22T05:59:37.575Z,8.40
2017-10-22T06:02:05.333Z,9.53
2017-10-22T06:04:32.800Z,8.47
2017-10-22T06:07:01.168Z,8.00
2017-10-22T06:09:28.628Z,5.60
2017-10-22T06:11:56.151Z,4.70
2017-10-22T06:14:24.027Z,4.67
2017-10-22T06:16:51.482Z,5.50
2017-10-22T06:19:19.394Z,5.53
2017-10-22T06:21:48.374Z,6.70
2017-10-22T06:24:15.904Z,8.13
2017-10-22T06:26:43.973Z,4.63
2017-10-22T06:29:11.464Z,4.10
2017-10-22T06:31:38.939Z,4.33
2017-10-22T06:34:06.416Z,2.30
2017-10-22T06:36:34.653Z,2.80
2017-10-22T06:39:02.123Z,3.40
2017-10-22T06:41:29.626Z,3.00
2017-10-22T06:43:57.101Z,3.40
2017-10-22T06:46:24.576Z,2.47
2017-10-22T06:48:52.255Z,2.73
2017-10-22T06:51:19.928Z,2.50
2017-10-22T06:53:47.755Z,2.80
2017-10-22T06:56:15.220Z,2.50
2017-10-22T06:58:43.160Z,3.40
2017-10-22T07:01:10.623Z,3.93
2017-10-22T07:03:38.083Z,3.70
2017-10-22T07:06:05.684Z,2.90
2017-10-22T07:08:33.142Z,3.40
2017-10-22T07:11:01.380Z,2.50
2017-10-22T07:13:28.878Z,2.10
2017-10-22T07:15:56.423Z,2.60
2017-10-22T07:18:23.900Z,2.27
2017-10-22T07:20:52.172Z,2.07
2017-10-22T07:23:19.638Z,3.53
2017-10-22T07:25:48.506Z,1.83
2017-10-22T07:28:16.064Z,3.33
2017-10-22T07:30:43.633Z,2.37
2017-10-22T07:33:11.874Z,2.60
2017-10-22T07:35:40.181Z,2.47
2017-10-22T07:38:07.652Z,2.50
2017-10-22T07:40:35.886Z,2.20
2017-10-22T07:43:03.364Z,1.97
2017-10-22T07:45:30.839Z,2.17
2017-10-22T07:47:59.080Z,2.50
2017-10-22T07:50:26.547Z,1.53
2017-10-22T07:52:54.026Z,1.97
2017-10-22T07:55:22.311Z,2.47
2017-10-22T07:57:50.571Z,2.53
2017-10-22T08:00:18.836Z,2.37
2017-10-22T08:02:46.294Z,2.03
2017-10-22T08:05:13.852Z,2.93
2017-10-22T08:07:41.313Z,1.73
2017-10-22T08:10:09.539Z,2.10
2017-10-22T08:12:37.028Z,1.90
2017-10-22T08:15:04.526Z,2.47
2017-10-22T08:17:32.750Z,1.93
2017-10-22T08:20:00.339Z,2.10
2017-10-22T08:22:28.589Z,2.40
2017-10-22T08:24:56.052Z,2.90
2017-10-22T08:27:23.618Z,1.77
2017-10-22T08:29:51.889Z,2.30
2017-10-22T08:32:19.439Z,2.03
2017-10-22T08:34:46.925Z,2.40
2017-10-22T08:37:14.658Z,3.57
2017-10-22T08:42:47.217Z,2.33
2017-10-22T08:45:14.684Z,2.37
2017-10-22T08:47:42.161Z,2.13
2017-10-22T08:50:09.635Z,2.30
2017-10-22T08:52:37.119Z,2.33
2017-10-22T08:55:05.371Z,1.70
2017-10-22T08:57:33.608Z,1.67
2017-10-22T09:00:01.084Z,2.27
2017-10-22T09:02:28.654Z,2.67
2017-10-22T09:04:56.121Z,2.27
2017-10-22T09:07:23.583Z,2.27
2017-10-22T09:09:51.824Z,2.33
2017-10-22T09:12:19.284Z,2.07
2017-10-22T09:14:46.760Z,3.27
2017-10-22T09:17:14.435Z,2.57
2017-10-22T09:19:42.668Z,2.30
2017-10-22T09:22:10.131Z,2.20
2017-10-22T09:24:37.612Z,1.93
2017-10-22T09:27:05.072Z,2.20
2017-10-22T09:29:33.436Z,2.60
2017-10-22T09:32:00.904Z,2.00
2017-10-22T09:34:28.381Z,2.30
2017-10-22T09:36:56.684Z,2.30
2017-10-22T09:39:24.150Z,2.67
2017-10-22T09:41:51.687Z,1.50
2017-10-22T09:44:19.179Z,3.00
2017-10-22T09:46:46.647Z,2.20
2017-10-22T09:49:14.124Z,1.67
2017-10-22T09:51:42.404Z,2.13
2017-10-22T09:54:09.880Z,2.90
2017-10-22T09:56:38.114Z,1.73
2017-10-22T09:59:06.184Z,2.07
2017-10-22T10:01:33.654Z,1.97
2017-10-22T10:04:01.124Z,2.30
2017-10-22T10:06:29.346Z,2.13
2017-10-22T10:08:56.828Z,2.30
2017-10-22T10:11:24.296Z,1.63
2017-10-22T10:13:51.765Z,3.40
2017-10-22T10:16:19.283Z,4.03
2017-10-22T10:18:46.756Z,3.07
2017-10-22T10:21:14.232Z,6.70
2017-10-22T10:23:42.383Z,7.70
2017-10-22T10:26:09.873Z,5.57
2017-10-22T10:28:38.099Z,1.90
2017-10-22T10:31:05.585Z,2.00
2017-10-22T10:33:33.061Z,2.10
2017-10-22T10:36:01.326Z,1.77
2017-10-22T10:38:29.598Z,1.27
2017-10-22T10:40:57.167Z,1.20
2017-10-22T10:43:24.652Z,2.17
2017-10-22T10:45:53.001Z,2.40
2017-10-22T10:48:20.580Z,2.10
2017-10-22T10:50:48.807Z,2.17
2017-10-22T10:53:16.336Z,1.60
2017-10-22T10:55:43.893Z,2.77
2017-10-22T10:58:11.376Z,1.83
2017-10-22T11:00:38.844Z,1.90
2017-10-22T11:03:06.472Z,2.13
2017-10-22T11:05:33.946Z,2.50
2017-10-22T11:08:01.412Z,3.30
2017-10-22T11:10:28.883Z,2.27
2017-10-22T11:12:56.363Z,2.43
2017-10-22T11:15:25.227Z,1.90
2017-10-22T11:17:52.706Z,2.17
2017-10-22T11:20:20.948Z,2.97
2017-10-22T11:22:48.411Z,11.33
2017-10-22T11:25:15.883Z,2.90
2017-10-22T11:27:43.338Z,2.13
2017-10-22T11:30:10.798Z,1.80
2017-10-22T11:32:38.270Z,2.30
2017-10-22T11:35:06.506Z,1.83
2017-10-22T11:37:33.959Z,2.20
2017-10-22T11:40:01.447Z,2.30
2017-10-22T11:42:28.900Z,2.00
2017-10-22T11:44:56.356Z,2.00
2017-10-22T11:47:23.839Z,1.80
2017-10-22T11:49:51.318Z,2.07
2017-10-22T11:52:19.153Z,2.50
2017-10-22T11:54:47.387Z,2.13
2017-10-22T11:57:14.863Z,2.20
2017-10-22T11:59:42.319Z,2.30
2017-10-22T12:02:09.794Z,2.97
2017-10-22T12:04:38.023Z,5.03
2017-10-22T12:07:05.975Z,2.70
2017-10-22T12:09:33.449Z,2.90
2017-10-22T12:12:00.914Z,1.73
2017-10-22T12:14:28.363Z,1.80
2017-10-22T12:16:55.947Z,2.07
2017-10-22T12:19:23.407Z,2.80
2017-10-22T12:21:50.968Z,2.47
2017-10-22T12:24:18.446Z,2.20
2017-10-22T12:26:46.686Z,2.30
2017-10-22T12:29:14.146Z,1.80
2017-10-22T12:31:41.618Z,2.00
2017-10-22T12:34:10.243Z,1.67
2017-10-22T12:36:37.694Z,1.97
2017-10-22T12:39:05.172Z,2.63
2017-10-22T12:41:32.891Z,2.50
2017-10-22T12:44:01.311Z,2.93
2017-10-22T12:46:28.788Z,4.50
2017-10-22T12:48:56.255Z,2.00
2017-10-22T12:51:23.715Z,1.87
2017-10-22T12:53:51.200Z,3.70
2017-10-22T12:56:19.436Z,2.70
2017-10-22T12:58:46.900Z,2.80
2017-10-22T13:01:14.395Z,1.77
2017-10-22T13:03:42.619Z,2.00
2017-10-22T13:06:10.091Z,3.30
2017-10-22T13:08:37.575Z,2.53
2017-10-22T13:11:05.804Z,1.80
2017-10-22T13:13:33.259Z,1.90
2017-10-22T13:16:00.763Z,2.20
2017-10-22T13:18:28.992Z,1.80
2017-10-22T13:20:56.447Z,1.80
2017-10-22T13:23:24.403Z,1.70
2017-10-22T13:25:51.878Z,2.87
2017-10-22T13:28:19.363Z,2.27
2017-10-22T13:30:47.612Z,1.80
2017-10-22T13:33:15.087Z,2.50
2017-10-22T13:35:42.556Z,1.67
2017-10-22T13:38:10.795Z,3.53
2017-10-22T13:40:38.256Z,2.23
2017-10-22T13:43:06.258Z,1.80
2017-10-22T13:45:34.511Z,2.50
2017-10-22T13:48:02.683Z,2.87
2017-10-22T13:50:30.147Z,2.60
2017-10-22T13:52:57.712Z,2.60
2017-10-22T13:55:25.164Z,2.17
2017-10-22T13:57:52.628Z,1.70
2017-10-22T14:00:20.182Z,2.00
2017-10-22T14:02:47.731Z,3.30
2017-10-22T14:05:15.199Z,3.43
2017-10-22T14:07:42.706Z,1.90
2017-10-22T14:10:10.180Z,2.47
2017-10-22T14:12:37.660Z,3.17
2017-10-22T14:15:05.144Z,2.27
2017-10-22T14:17:33.395Z,3.07
2017-10-22T14:20:00.910Z,3.43
2017-10-22T14:22:28.413Z,1.67
2017-10-22T14:24:55.975Z,2.00
2017-10-22T14:27:23.440Z,3.10
2017-10-22T14:29:51.682Z,2.13
2017-10-22T14:32:19.144Z,2.63
2017-10-22T14:34:46.637Z,2.57
2017-10-22T14:37:14.912Z,2.93
2017-10-22T14:39:43.141Z,3.00
2017-10-22T14:42:10.599Z,2.27
2017-10-22T14:44:38.113Z,3.07
2017-10-22T14:47:07.111Z,2.13
2017-10-22T14:49:34.580Z,2.83
2017-10-22T14:52:02.113Z,2.27
2017-10-22T14:54:30.375Z,1.90
2017-10-22T14:56:58.608Z,2.40
2017-10-22T14:59:26.095Z,1.80
2017-10-22T15:01:53.561Z,2.07
2017-10-22T15:04:21.616Z,2.40
2017-10-22T15:06:49.098Z,2.00
2017-10-22T15:09:17.348Z,2.60
2017-10-22T15:11:45.667Z,3.40
2017-10-22T15:14:13.241Z,3.00
2017-10-22T15:16:40.699Z,2.17
2017-10-22T15:19:08.180Z,2.50
2017-10-22T15:21:35.656Z,2.30
2017-10-22T15:24:03.119Z,3.53
2017-10-22T15:26:30.604Z,2.50
2017-10-22T15:28:58.089Z,7.83
2017-10-22T15:31:25.590Z,4.40
2017-10-22T15:33:53.063Z,5.00
2017-10-22T15:36:21.344Z,2.40
2017-10-22T15:38:49.596Z,2.73
2017-10-22T15:41:17.105Z,3.03
2017-10-22T15:43:45.309Z,2.37
2017-10-22T15:46:12.896Z,2.50
2017-10-22T15:48:40.347Z,2.90
2017-10-22T15:51:07.815Z,2.67
2017-10-22T15:53:36.043Z,3.10
2017-10-22T15:56:03.535Z,4.03
2017-10-22T15:58:31.097Z,3.10
2017-10-22T16:00:59.347Z,2.03
2017-10-22T16:03:26.805Z,2.27
2017-10-22T16:05:54.384Z,4.63
2017-10-22T16:08:21.831Z,6.73
2017-10-22T16:10:49.402Z,4.60
2017-10-22T16:13:16.974Z,2.70
2017-10-22T16:15:45.236Z,2.80
2017-10-22T16:18:14.203Z,2.67
2017-10-22T16:20:41.675Z,2.73
2017-10-22T16:23:09.242Z,2.10
2017-10-22T16:25:36.705Z,2.67
2017-10-22T16:28:04.184Z,2.27
2017-10-22T16:30:32.408Z,2.43
2017-10-22T16:32:59.888Z,2.60
2017-10-22T16:35:27.417Z,2.83
2017-10-22T16:37:54.871Z,2.60
2017-10-22T16:40:22.382Z,2.90
2017-10-22T16:42:50.910Z,2.50
2017-10-22T16:45:18.367Z,3.20
2017-10-22T16:47:45.831Z,2.80
2017-10-22T16:50:13.344Z,3.30
2017-10-22T16:52:42.189Z,2.73
2017-10-22T16:55:09.772Z,2.80
2017-10-22T16:57:38.024Z,2.67
2017-10-22T17:00:06.401Z,2.30
2017-10-22T17:02:33.863Z,2.43
2017-10-22T17:05:01.353Z,2.53
2017-10-22T17:07:29.588Z,2.40
2017-10-22T17:09:57.055Z,2.80
2017-10-22T17:12:25.248Z,2.57
2017-10-22T17:14:53.467Z,2.40
2017-10-22T17:17:22.169Z,2.07
2017-10-22T17:19:49.652Z,3.60
2017-10-22T17:22:17.895Z,4.43
2017-10-22T17:24:46.135Z,5.53
2017-10-22T17:27:13.925Z,1.87
2017-10-22T17:29:42.456Z,2.83
2017-10-22T17:32:10.773Z,3.97
2017-10-22T17:34:38.285Z,2.70
2017-10-22T17:37:05.850Z,2.20
2017-10-22T17:39:34.083Z,3.50
2017-10-22T17:42:01.609Z,2.63
2017-10-22T17:44:29.132Z,2.60
2017-10-22T17:46:56.588Z,3.37
2017-10-22T17:49:24.301Z,3.17
2017-10-22T17:51:51.760Z,2.77
2017-10-22T17:54:19.219Z,2.90
2017-10-22T17:56:46.713Z,3.30
2017-10-22T17:59:14.286Z,2.97
2017-10-22T18:01:42.091Z,3.63
2017-10-22T18:04:09.568Z,4.40
2017-10-22T18:06:37.034Z,3.73
2017-10-22T18:09:04.991Z,3.60
2017-10-22T18:11:32.485Z,4.97
2017-10-22T18:13:59.940Z,5.23
2017-10-22T18:16:27.404Z,5.10
2017-10-22T18:18:55.676Z,4.47
2017-10-22T18:21:23.944Z,5.63
2017-10-22T18:23:51.505Z,3.43
2017-10-22T18:26:19.064Z,4.70
2017-10-22T18:28:46.613Z,3.73
2017-10-22T18:31:14.080Z,4.13
2017-10-22T18:33:42.175Z,3.83
2017-10-22T18:36:10.401Z,4.43
2017-10-22T18:38:37.860Z,4.60
2017-10-22T18:41:05.340Z,3.67
2017-10-22T18:43:32.794Z,4.70
2017-10-22T18:46:00.360Z,4.90
2017-10-22T18:48:27.859Z,4.50
2017-10-22T18:50:55.328Z,4.40
2017-10-22T18:53:22.811Z,4.40
2017-10-22T18:55:50.385Z,3.97
2017-10-22T18:58:17.944Z,4.30
2017-10-22T19:00:45.414Z,4.67
2017-10-22T19:03:12.887Z,4.80
2017-10-22T19:05:40.351Z,5.70
2017-10-22T19:08:07.818Z,5.37
2017-10-22T19:10:35.319Z,4.73
2017-10-22T19:13:02.779Z,5.47
2017-10-22T19:15:31.014Z,5.37
2017-10-22T19:17:58.516Z,5.30
2017-10-22T19:20:26.705Z,6.17
2017-10-22T19:22:54.954Z,6.57
2017-10-22T19:25:22.447Z,8.27
2017-10-22T19:27:50.684Z,8.23
2017-10-22T19:30:18.438Z,10.20
2017-10-22T19:32:45.899Z,6.40
2017-10-22T19:35:13.372Z,5.40
2017-10-22T19:37:41.504Z,6.07
2017-10-22T19:40:09.000Z,6.20
2017-10-22T19:42:37.235Z,5.10
2017-10-22T19:45:04.699Z,4.63
2017-10-22T19:47:32.197Z,5.50
2017-10-22T19:49:59.700Z,5.93
2017-10-22T19:52:27.758Z,4.90
2017-10-22T19:54:55.244Z,5.27
2017-10-22T19:57:22.716Z,5.40
2017-10-22T19:59:50.195Z,6.90
2017-10-22T20:02:17.658Z,6.20
2017-10-22T20:04:45.116Z,7.30
2017-10-22T20:07:13.408Z,6.33
2017-10-22T20:09:42.457Z,5.20
2017-10-22T20:12:09.936Z,7.30
2017-10-22T20:14:37.409Z,5.33
2017-10-22T20:17:05.655Z,5.13
2017-10-22T20:19:33.119Z,5.00
2017-10-22T20:22:00.692Z,6.00
2017-10-22T20:24:28.971Z,5.20
2017-10-22T20:26:57.210Z,5.27
2017-10-22T20:29:24.692Z,5.40
2017-10-22T20:31:52.163Z,5.37
2017-10-22T20:34:20.404Z,5.80
2017-10-22T20:36:47.888Z,5.73
2017-10-22T20:39:16.148Z,5.37
2017-10-22T20:41:43.965Z,5.43
2017-10-22T20:44:11.439Z,6.17
2017-10-22T20:46:38.907Z,6.70
2017-10-22T20:49:07.144Z,5.60
2017-10-22T20:51:34.618Z,5.73
2017-10-22T20:54:02.121Z,5.07
2017-10-22T20:56:30.303Z,5.60
2017-10-22T20:58:58.623Z,5.53
2017-10-22T21:01:29.804Z,5.10
2017-10-22T21:03:57.343Z,5.03
2017-10-22T21:06:25.628Z,6.80
2017-10-22T21:08:53.632Z,5.60
2017-10-22T21:11:22.568Z,4.67
2017-10-22T21:13:50.088Z,5.07
2017-10-22T21:16:18.501Z,4.40
2017-10-22T21:18:46.679Z,4.13
2017-10-22T21:21:14.844Z,5.90
2017-10-22T21:23:42.416Z,4.73
2017-10-22T21:26:09.903Z,4.37
2017-10-22T21:28:37.370Z,4.17
2017-10-22T21:31:05.973Z,4.00
2017-10-22T21:33:34.202Z,5.30
2017-10-22T21:36:01.780Z,3.87
2017-10-22T21:38:29.246Z,4.40
2017-10-22T21:40:57.869Z,3.57
2017-10-22T21:43:25.345Z,4.00
2017-10-22T21:45:52.847Z,5.47
2017-10-22T21:48:21.095Z,4.77
2017-10-22T21:50:48.688Z,3.90
2017-10-22T21:53:16.937Z,3.63
2017-10-22T21:55:45.347Z,3.17
2017-10-22T21:58:13.600Z,2.70
2017-10-22T22:00:41.075Z,3.10
2017-10-22T22:03:08.620Z,3.50
2017-10-22T22:05:36.095Z,4.23
2017-10-22T22:08:04.343Z,3.57
2017-10-22T22:10:33.331Z,4.33
2017-10-22T22:13:00.900Z,3.73
2017-10-22T22:15:28.620Z,4.47
2017-10-22T22:17:56.102Z,4.13
2017-10-22T22:20:23.608Z,3.80
2017-10-22T22:22:51.132Z,5.10
2017-10-22T22:25:20.120Z,3.87
2017-10-22T22:27:47.602Z,4.20
2017-10-22T22:30:15.856Z,3.33
2017-10-22T22:32:43.466Z,3.50
2017-10-22T22:35:10.944Z,3.67
2017-10-22T22:37:38.418Z,3.80
2017-10-22T22:40:06.713Z,3.80
2017-10-22T22:42:34.268Z,2.70
2017-10-22T22:45:01.744Z,3.20
2017-10-22T22:47:30.680Z,4.10
2017-10-22T22:49:58.160Z,5.20
2017-10-22T22:52:25.827Z,3.60
2017-10-22T22:54:53.390Z,3.60
2017-10-22T22:57:20.947Z,3.47
2017-10-22T22:59:49.193Z,2.40
2017-10-22T23:02:16.664Z,4.20
2017-10-22T23:04:47.849Z,4.13
2017-10-22T23:07:16.084Z,3.13
2017-10-22T23:09:43.917Z,3.37
2017-10-22T23:12:11.424Z,3.30
2017-10-22T23:14:38.912Z,4.97
2017-10-22T23:17:07.147Z,3.80
2017-10-22T23:19:35.631Z,3.97
2017-10-22T23:22:03.137Z,3.20
2017-10-22T23:24:30.603Z,3.23
2017-10-22T23:26:58.089Z,3.13
2017-10-22T23:29:26.382Z,4.60
2017-10-22T23:31:53.872Z,4.17
2017-10-22T23:34:21.755Z,4.13
2017-10-22T23:36:49.223Z,3.50
2017-10-22T23:39:16.717Z,3.70
2017-10-22T23:41:44.291Z,4.73
2017-10-22T23:44:13.532Z,3.20
2017-10-22T23:46:41.030Z,3.97
2017-10-22T23:49:08.605Z,3.53
2017-10-22T23:51:36.855Z,3.40
2017-10-22T23:54:04.331Z,3.27
2017-10-22T23:56:32.246Z,3.00
2017-10-22T23:58:59.757Z,3.50
